Time,TemperatureF,DewpointF,PressureIn,WindDirection,WindDirectionDegrees,WindSpeedMPH,WindSpeedGustMPH,Humidity,HourlyPrecipIn,Conditions,Clouds,dailyrainin,SoftwareType,DateUTC
2013-08-08 00:02:00,80.0,-99.9,30.05,East,79,5.0,7.0,-999,-99.99,,,-99.99,,2013-08-08 04:02:00,
2013-08-08 00:12:00,80.0,-99.9,30.05,East,89,8.0,9.0,-999,-99.99,,,-99.99,,2013-08-08 04:12:00,
2013-08-08 00:33:00,80.0,-99.9,30.05,East,97,4.0,6.0,-999,-99.99,,,-99.99,,2013-08-08 04:33:00,
2013-08-08 00:44:00,80.0,-99.9,30.05,ESE,110,5.0,6.0,-999,-99.99,,,-99.99,,2013-08-08 04:44:00,
2013-08-08 00:53:00,80.0,-99.9,30.04,ESE,107,3.0,5.0,-999,-99.99,,,-99.99,,2013-08-08 04:53:00,
2013-08-08 01:02:00,81.0,-99.9,30.04,SE,146,9.0,10.0,-999,-99.99,,,-99.99,,2013-08-08 05:02:00,
2013-08-08 01:12:00,80.0,-99.9,30.04,SSE,153,13.0,16.0,-999,-99.99,,,-99.99,,2013-08-08 05:12:00,
2013-08-08 01:33:00,80.0,-99.9,30.03,SSE,156,12.0,13.0,-999,-99.99,,,-99.99,,2013-08-08 05:33:00,
2013-08-08 01:43:00,80.0,-99.9,30.03,SSE,157,12.0,13.0,-999,-99.99,,,-99.99,,2013-08-08 05:43:00,
2013-08-08 01:52:00,80.0,-99.9,30.03,SSE,165,12.0,13.0,-999,-99.99,,,-99.99,,2013-08-08 05:52:00,
2013-08-08 02:01:00,80.0,-99.9,30.03,SSE,156,10.0,11.0,-999,-99.99,,,-99.99,,2013-08-08 06:01:00,
2013-08-08 02:12:00,80.0,-99.9,30.03,SSE,157,11.0,13.0,-999,-99.99,,,-99.99,,2013-08-08 06:12:00,
2013-08-08 02:32:00,80.0,-99.9,30.03,SSE,161,7.0,9.0,-999,-99.99,,,-99.99,,2013-08-08 06:32:00,
2013-08-08 02:43:00,80.0,-99.9,30.03,SSE,156,9.0,9.0,-999,-99.99,,,-99.99,,2013-08-08 06:43:00,
2013-08-08 02:52:00,80.0,-99.9,30.03,SSE,155,9.0,10.0,-999,-99.99,,,-99.99,,2013-08-08 06:52:00,
2013-08-08 03:02:00,80.0,-99.9,30.03,SSE,165,9.0,10.0,-999,-99.99,,,-99.99,,2013-08-08 07:02:00,
2013-08-08 03:32:00,80.0,-99.9,30.02,SSE,161,8.0,10.0,-999,-99.99,,,-99.99,,2013-08-08 07:32:00,
2013-08-08 03:43:00,80.0,-99.9,30.02,SSE,163,7.0,9.0,-999,-99.99,,,-99.99,,2013-08-08 07:43:00,
2013-08-08 03:53:00,80.0,-99.9,30.02,SSE,152,7.0,8.0,-999,-99.99,,,-99.99,,2013-08-08 07:53:00,
2013-08-08 04:02:00,80.0,-99.9,30.02,SE,140,6.0,7.0,-999,-99.99,,,-99.99,,2013-08-08 08:02:00,
2013-08-08 04:11:00,80.0,-99.9,30.02,SE,141,6.0,7.0,-999,-99.99,,,-99.99,,2013-08-08 08:11:00,
2013-08-08 04:32:00,80.0,-99.9,30.02,SE,141,6.0,7.0,-999,-99.99,,,-99.99,,2013-08-08 08:32:00,
2013-08-08 04:53:00,80.0,-99.9,30.02,SE,136,6.0,6.0,-999,-99.99,,,-99.99,,2013-08-08 08:53:00,
2013-08-08 05:02:00,80.0,-99.9,30.02,SE,135,6.0,7.0,-999,-99.99,,,-99.99,,2013-08-08 09:02:00,
2013-08-08 05:43:00,80.0,-99.9,30.02,SE,135,6.0,7.0,-999,-99.99,,,-99.99,,2013-08-08 09:43:00,
2013-08-08 05:53:00,80.0,-99.9,30.02,SE,140,6.0,7.0,-999,-99.99,,,-99.99,,2013-08-08 09:53:00,
2013-08-08 06:01:00,80.0,-99.9,30.02,SE,140,6.0,7.0,-999,-99.99,,,-99.99,,2013-08-08 10:01:00,
2013-08-08 06:12:00,80.0,-99.9,30.02,SE,140,6.0,7.0,-999,-99.99,,,-99.99,,2013-08-08 10:12:00,
2013-08-08 06:22:00,80.0,-99.9,30.02,SE,140,6.0,7.0,-999,-99.99,,,-99.99,,2013-08-08 10:22:00,
2013-08-08 06:33:00,80.0,-99.9,30.02,SE,139,4.0,4.0,-999,-99.99,,,-99.99,,2013-08-08 10:33:00,
2013-08-08 06:43:00,80.0,-99.9,30.02,SE,133,4.0,4.0,-999,-99.99,,,-99.99,,2013-08-08 10:43:00,
2013-08-08 06:52:00,80.0,-99.9,30.02,SE,126,3.0,4.0,-999,-99.99,,,-99.99,,2013-08-08 10:52:00,
2013-08-08 07:02:00,80.0,-99.9,30.02,SE,135,4.0,5.0,-999,-99.99,,,-99.99,,2013-08-08 11:02:00,
2013-08-08 07:11:00,80.0,-99.9,30.03,SE,128,4.0,5.0,-999,-99.99,,,-99.99,,2013-08-08 11:11:00,
2013-08-08 07:43:00,80.0,-99.9,30.03,ESE,112,4.0,4.0,-999,-99.99,,,-99.99,,2013-08-08 11:43:00,
2013-08-08 08:43:00,84.0,-99.9,30.04,SE,124,2.0,3.0,-999,-99.99,,,-99.99,,2013-08-08 12:43:00,
2013-08-08 09:02:00,83.0,-99.9,30.04,ESE,118,2.0,2.0,-999,-99.99,,,-99.99,,2013-08-08 13:02:00,
2013-08-08 09:32:00,83.0,-99.9,30.05,SE,128,2.0,3.0,-999,-99.99,,,-99.99,,2013-08-08 13:32:00,
2013-08-08 09:43:00,84.0,-99.9,30.05,South,170,1.0,2.0,-999,-99.99,,,-99.99,,2013-08-08 13:43:00,
2013-08-08 09:53:00,84.0,-99.9,30.05,SSE,156,2.0,2.0,-999,-99.99,,,-99.99,,2013-08-08 13:53:00,
2013-08-08 10:02:00,83.0,-99.9,30.06,SE,129,1.0,2.0,-999,-99.99,,,-99.99,,2013-08-08 14:02:00,
2013-08-08 10:32:00,84.0,-99.9,30.06,SE,131,2.0,3.0,-999,-99.99,,,-99.99,,2013-08-08 14:32:00,
2013-08-08 10:53:00,85.0,-99.9,30.06,SE,135,2.0,3.0,-999,-99.99,,,-99.99,,2013-08-08 14:53:00,
2013-08-08 11:02:00,84.0,-99.9,30.06,SE,130,2.0,4.0,-999,-99.99,,,-99.99,,2013-08-08 15:02:00,
2013-08-08 11:22:00,85.0,-99.9,30.06,ESE,121,3.0,4.0,-999,-99.99,,,-99.99,,2013-08-08 15:22:00,
2013-08-08 11:33:00,83.0,-99.9,30.06,SE,128,3.0,4.0,-999,-99.99,,,-99.99,,2013-08-08 15:33:00,
2013-08-08 11:43:00,83.0,-99.9,30.06,SE,141,4.0,5.0,-999,-99.99,,,-99.99,,2013-08-08 15:43:00,
2013-08-08 11:53:00,83.0,-99.9,30.06,SE,135,4.0,6.0,-999,-99.99,,,-99.99,,2013-08-08 15:53:00,
2013-08-08 12:02:00,83.0,-99.9,30.06,SE,137,4.0,6.0,-999,-99.99,,,-99.99,,2013-08-08 16:02:00,
2013-08-08 12:11:00,83.0,-99.9,30.06,SE,137,5.0,6.0,-999,-99.99,,,-99.99,,2013-08-08 16:11:00,
2013-08-08 13:02:00,82.0,-99.9,30.05,SE,143,6.0,7.0,-999,-99.99,,,-99.99,,2013-08-08 17:02:00,
2013-08-08 13:32:00,82.0,-99.9,30.06,SE,141,8.0,9.0,-999,-99.99,,,-99.99,,2013-08-08 17:32:00,
2013-08-08 13:43:00,82.0,-99.9,30.05,SSE,149,7.0,8.0,-999,-99.99,,,-99.99,,2013-08-08 17:43:00,
2013-08-08 13:52:00,82.0,-99.9,30.05,SSE,164,8.0,9.0,-999,-99.99,,,-99.99,,2013-08-08 17:52:00,
2013-08-08 14:02:00,82.0,-99.9,30.05,SSE,160,10.0,11.0,-999,-99.99,,,-99.99,,2013-08-08 18:02:00,
2013-08-08 15:32:00,82.0,-99.9,30.04,South,170,12.0,15.0,-999,-99.99,,,-99.99,,2013-08-08 19:32:00,
2013-08-08 15:43:00,82.0,-99.9,30.03,SSE,165,11.0,14.0,-999,-99.99,,,-99.99,,2013-08-08 19:43:00,
2013-08-08 15:59:00,82.0,-99.9,30.03,SSE,165,13.0,14.0,-999,-99.99,,,-99.99,,2013-08-08 19:59:00,
2013-08-08 16:32:00,82.0,-99.9,30.02,SSE,166,15.0,17.0,-999,-99.99,,,-99.99,,2013-08-08 20:32:00,
2013-08-08 16:42:00,82.0,-99.9,30.02,SSE,163,15.0,18.0,-999,-99.99,,,-99.99,,2013-08-08 20:42:00,
2013-08-08 16:53:00,82.0,-99.9,30.02,SSE,168,17.0,19.0,-999,-99.99,,,-99.99,,2013-08-08 20:53:00,
2013-08-08 17:01:00,82.0,-99.9,30.02,South,176,16.0,19.0,-999,-99.99,,,-99.99,,2013-08-08 21:01:00,
2013-08-08 17:15:00,82.0,-99.9,30.03,South,178,16.0,18.0,-999,-99.99,,,-99.99,,2013-08-08 21:15:00,
2013-08-08 17:57:00,82.0,-99.9,30.03,South,182,16.0,18.0,-999,-99.99,,,-99.99,,2013-08-08 21:57:00,
2013-08-08 18:17:00,82.0,-99.9,30.02,South,183,16.0,17.0,-999,-99.99,,,-99.99,,2013-08-08 22:17:00,
2013-08-08 19:07:00,83.0,-99.9,30.01,South,190,15.0,16.0,-999,-99.99,,,-99.99,,2013-08-08 23:07:00,
2013-08-08 19:15:00,83.0,-99.9,30.01,South,189,14.0,16.0,-999,-99.99,,,-99.99,,2013-08-08 23:15:00,
2013-08-08 19:37:00,83.0,-99.9,30.01,South,190,15.0,16.0,-999,-99.99,,,-99.99,,2013-08-08 23:37:00,
2013-08-08 19:51:00,83.0,-99.9,30.01,South,188,15.0,17.0,-999,-99.99,,,-99.99,,2013-08-08 23:51:00,
2013-08-08 19:58:00,83.0,-99.9,30.01,South,189,15.0,17.0,-999,-99.99,,,-99.99,,2013-08-08 23:58:00,
2013-08-08 20:06:00,82.0,-99.9,30.01,SSW,193,15.0,17.0,-999,-99.99,,,-99.99,,2013-08-09 00:06:00,
2013-08-08 20:36:00,82.0,-99.9,30.02,SSW,195,15.0,17.0,-999,-99.99,,,-99.99,,2013-08-09 00:36:00,
2013-08-08 20:48:00,82.0,-99.9,30.03,South,189,15.0,17.0,-999,-99.99,,,-99.99,,2013-08-09 00:48:00,
2013-08-08 20:58:00,82.0,-99.9,30.03,SSW,195,16.0,17.0,-999,-99.99,,,-99.99,,2013-08-09 00:58:00,
2013-08-08 22:00:00,82.0,-99.9,30.05,SW,225,7.0,8.0,-999,-99.99,,,-99.99,,2013-08-09 02:00:00,
2013-08-08 22:26:00,81.0,-99.9,30.05,SW,219,6.0,7.0,-999,-99.99,,,-99.99,,2013-08-09 02:26:00,
2013-08-08 22:57:00,81.0,-99.9,30.06,SSW,202,10.0,11.0,-999,-99.99,,,-99.99,,2013-08-09 02:57:00,
2013-08-08 23:08:00,81.0,-99.9,30.06,SSW,203,10.0,11.0,-999,-99.99,,,-99.99,,2013-08-09 03:08:00,
2013-08-08 23:48:00,81.0,-99.9,30.06,SSW,206,13.0,15.0,-999,-99.99,,,-99.99,,2013-08-09 03:48:00,